sensor_id;sensor_type;location;lat;lon;timestamp;pressure;altitude;pressure_sealevel;temperature;humidity
71149;BME280;59072;42.144;25.200;2023-01-01T00:01:28;101611.94;;;3.95;72.57
71149;BME280;59072;42.144;25.200;2023-01-01T00:03:55;101599.38;;;3.78;73.57
71149;BME280;59072;42.144;25.200;2023-01-01T00:06:21;101603.00;;;3.67;74.35
71149;BME280;59072;42.144;25.200;2023-01-01T00:08:47;101617.88;;;3.28;76.91
71149;BME280;59072;42.144;25.200;2023-01-01T00:11:13;101614.78;;;3.13;78.34
71149;BME280;59072;42.144;25.200;2023-01-01T00:13:40;101616.38;;;3.04;78.65
71149;BME280;59072;42.144;25.200;2023-01-01T00:16:11;101605.75;;;2.85;79.20
71149;BME280;59072;42.144;25.200;2023-01-01T00:18:38;101620.91;;;2.71;81.23
71149;BME280;59072;42.144;25.200;2023-01-01T00:21:08;101612.63;;;2.55;81.60
71149;BME280;59072;42.144;25.200;2023-01-01T00:23:35;101627.19;;;3.01;80.16
71149;BME280;59072;42.144;25.200;2023-01-01T00:26:08;101615.19;;;2.87;80.48
71149;BME280;59072;42.144;25.200;2023-01-01T00:28:34;101596.06;;;2.64;81.42
71149;BME280;59072;42.144;25.200;2023-01-01T00:31:07;101624.31;;;2.83;81.84
71149;BME280;59072;42.144;25.200;2023-01-01T00:33:33;101628.03;;;3.01;81.66
71149;BME280;59072;42.144;25.200;2023-01-01T00:36:07;101607.56;;;3.15;79.69
71149;BME280;59072;42.144;25.200;2023-01-01T00:38:33;101608.78;;;2.80;80.73
71149;BME280;59072;42.144;25.200;2023-01-01T00:40:59;101635.44;;;2.87;81.28
71149;BME280;59072;42.144;25.200;2023-01-01T00:43:24;101623.63;;;2.60;80.57
71149;BME280;59072;42.144;25.200;2023-01-01T00:45:49;101647.97;;;2.52;81.49
71149;BME280;59072;42.144;25.200;2023-01-01T00:48:18;101645.00;;;2.67;81.32
71149;BME280;59072;42.144;25.200;2023-01-01T00:50:48;101645.00;;;2.67;80.45
71149;BME280;59072;42.144;25.200;2023-01-01T00:53:14;101638.63;;;2.69;80.13
71149;BME280;59072;42.144;25.200;2023-01-01T00:55:41;101657.41;;;2.55;79.24
71149;BME280;59072;42.144;25.200;2023-01-01T00:58:07;101652.03;;;2.45;80.16
71149;BME280;59072;42.144;25.200;2023-01-01T01:00:33;101653.03;;;2.65;78.71
71149;BME280;59072;42.144;25.200;2023-01-01T01:02:58;101655.97;;;2.51;79.55
71149;BME280;59072;42.144;25.200;2023-01-01T01:05:24;101641.47;;;2.35;80.93
71149;BME280;59072;42.144;25.200;2023-01-01T01:07:49;101625.00;;;2.22;81.26
71149;BME280;59072;42.144;25.200;2023-01-01T01:10:15;101642.41;;;2.34;81.59
71149;BME280;59072;42.144;25.200;2023-01-01T01:12:41;101608.09;;;1.49;81.89
71149;BME280;59072;42.144;25.200;2023-01-01T01:15:08;101627.94;;;1.19;83.24
71149;BME280;59072;42.144;25.200;2023-01-01T01:17:34;101604.50;;;0.71;81.05
71149;BME280;59072;42.144;25.200;2023-01-01T01:20:00;101624.34;;;1.43;79.65
71149;BME280;59072;42.144;25.200;2023-01-01T01:22:26;101598.19;;;1.41;80.74
71149;BME280;59072;42.144;25.200;2023-01-01T01:24:51;101615.94;;;1.71;80.60
71149;BME280;59072;42.144;25.200;2023-01-01T01:27:17;101599.97;;;1.52;82.04
71149;BME280;59072;42.144;25.200;2023-01-01T01:29:42;101619.19;;;1.52;83.08
71149;BME280;59072;42.144;25.200;2023-01-01T01:32:10;101602.47;;;1.42;82.43
71149;BME280;59072;42.144;25.200;2023-01-01T01:34:35;101585.66;;;1.11;84.37
71149;BME280;59072;42.144;25.200;2023-01-01T01:37:01;101608.34;;;1.34;85.39
71149;BME280;59072;42.144;25.200;2023-01-01T01:39:26;101581.97;;;1.13;85.45
71149;BME280;59072;42.144;25.200;2023-01-01T01:41:52;101601.31;;;1.24;85.48
71149;BME280;59072;42.144;25.200;2023-01-01T01:47:49;101614.69;;;1.09;86.34
71149;BME280;59072;42.144;25.200;2023-01-01T01:50:34;101598.41;;;0.70;88.28
71149;BME280;59072;42.144;25.200;2023-01-01T01:53:06;101602.97;;;1.02;86.85
71149;BME280;59072;42.144;25.200;2023-01-01T01:55:36;101605.59;;;1.13;86.23
71149;BME280;59072;42.144;25.200;2023-01-01T01:58:04;101596.06;;;1.24;85.41
71149;BME280;59072;42.144;25.200;2023-01-01T02:00:32;101612.63;;;1.47;86.07
71149;BME280;59072;42.144;25.200;2023-01-01T02:03:05;101595.34;;;1.22;86.86
71149;BME280;59072;42.144;25.200;2023-01-01T02:05:32;101595.81;;;1.38;87.12
71149;BME280;59072;42.144;25.200;2023-01-01T02:07:58;101620.63;;;1.68;86.24
71149;BME280;59072;42.144;25.200;2023-01-01T02:10:26;101591.03;;;1.43;84.33
71149;BME280;59072;42.144;25.200;2023-01-01T02:12:52;101613.94;;;1.18;85.96
71149;BME280;59072;42.144;25.200;2023-01-01T02:15:18;101616.47;;;0.97;84.08
71149;BME280;59072;42.144;25.200;2023-01-01T02:20:41;101615.44;;;0.53;85.76
71149;BME280;59072;42.144;25.200;2023-01-01T02:32:02;101588.88;;;0.80;83.75
71149;BME280;59072;42.144;25.200;2023-01-01T02:34:35;101607.38;;;1.24;84.73
71149;BME280;59072;42.144;25.200;2023-01-01T02:37:05;101616.59;;;1.07;83.84
71149;BME280;59072;42.144;25.200;2023-01-01T02:39:34;101611.53;;;0.70;83.97
71149;BME280;59072;42.144;25.200;2023-01-01T02:42:03;101603.38;;;0.51;83.50
71149;BME280;59072;42.144;25.200;2023-01-01T02:44:30;101625.38;;;0.84;83.87
71149;BME280;59072;42.144;25.200;2023-01-01T02:47:05;101601.44;;;1.11;84.86
71149;BME280;59072;42.144;25.200;2023-01-01T02:49:30;101607.16;;;1.16;83.77
71149;BME280;59072;42.144;25.200;2023-01-01T02:52:03;101633.19;;;1.30;84.42
71149;BME280;59072;42.144;25.200;2023-01-01T02:57:17;101630.66;;;0.84;82.14
71149;BME280;59072;42.144;25.200;2023-01-01T03:11:20;101594.88;;;0.12;83.16
71149;BME280;59072;42.144;25.200;2023-01-01T03:14:04;101614.88;;;0.84;83.39
71149;BME280;59072;42.144;25.200;2023-01-01T03:16:46;101622.84;;;0.59;84.39
71149;BME280;59072;42.144;25.200;2023-01-01T03:19:17;101600.25;;;0.46;84.72
71149;BME280;59072;42.144;25.200;2023-01-01T03:27:02;101608.78;;;0.25;85.43
71149;BME280;59072;42.144;25.200;2023-01-01T03:29:32;101620.66;;;0.18;84.57
71149;BME280;59072;42.144;25.200;2023-01-01T03:32:01;101610.06;;;0.19;85.68
71149;BME280;59072;42.144;25.200;2023-01-01T03:34:35;101612.88;;;0.40;85.54
71149;BME280;59072;42.144;25.200;2023-01-01T03:37:06;101615.97;;;0.70;85.68
71149;BME280;59072;42.144;25.200;2023-01-01T03:39:45;101606.03;;;0.62;87.58
71149;BME280;59072;42.144;25.200;2023-01-01T03:42:35;101628.56;;;0.53;88.18
71149;BME280;59072;42.144;25.200;2023-01-01T03:45:19;101608.03;;;0.58;87.10
71149;BME280;59072;42.144;25.200;2023-01-01T03:47:45;101611.19;;;0.64;87.57
71149;BME280;59072;42.144;25.200;2023-01-01T03:50:12;101635.78;;;0.74;87.54
71149;BME280;59072;42.144;25.200;2023-01-01T03:55:37;101612.25;;;0.72;85.54
71149;BME280;59072;42.144;25.200;2023-01-01T04:01:01;101625.84;;;0.66;87.38
71149;BME280;59072;42.144;25.200;2023-01-01T04:03:29;101631.34;;;0.74;86.73
71149;BME280;59072;42.144;25.200;2023-01-01T04:05:56;101635.19;;;0.82;86.60
71149;BME280;59072;42.144;25.200;2023-01-01T04:08:22;101627.19;;;0.72;85.68
71149;BME280;59072;42.144;25.200;2023-01-01T04:10:53;101610.81;;;0.68;85.08
71149;BME280;59072;42.144;25.200;2023-01-01T04:13:20;101630.44;;;1.09;84.99
71149;BME280;59072;42.144;25.200;2023-01-01T04:15:46;101621.78;;;0.73;86.40
71149;BME280;59072;42.144;25.200;2023-01-01T04:18:11;101634.66;;;0.54;86.46
71149;BME280;59072;42.144;25.200;2023-01-01T04:20:37;101612.97;;;0.28;87.79
71149;BME280;59072;42.144;25.200;2023-01-01T04:23:03;101638.56;;;0.48;87.31
71149;BME280;59072;42.144;25.200;2023-01-01T04:25:29;101638.72;;;0.69;86.69
71149;BME280;59072;42.144;25.200;2023-01-01T04:27:54;101616.47;;;0.39;87.05
71149;BME280;59072;42.144;25.200;2023-01-01T04:30:20;101612.41;;;0.47;87.08
71149;BME280;59072;42.144;25.200;2023-01-01T04:32:46;101642.13;;;0.94;85.58
71149;BME280;59072;42.144;25.200;2023-01-01T04:35:13;101631.75;;;1.04;84.13
71149;BME280;59072;42.144;25.200;2023-01-01T04:37:40;101640.94;;;0.87;85.47
71149;BME280;59072;42.144;25.200;2023-01-01T04:40:07;101634.25;;;0.83;85.73
71149;BME280;59072;42.144;25.200;2023-01-01T04:42:33;101619.06;;;0.64;86.58
71149;BME280;59072;42.144;25.200;2023-01-01T04:44:58;101623.44;;;0.52;86.73
71149;BME280;59072;42.144;25.200;2023-01-01T04:47:24;101644.44;;;0.63;86.98
71149;BME280;59072;42.144;25.200;2023-01-01T04:49:52;101665.69;;;0.60;87.63
71149;BME280;59072;42.144;25.200;2023-01-01T04:52:18;101634.56;;;0.31;86.96
71149;BME280;59072;42.144;25.200;2023-01-01T04:54:43;101655.19;;;0.25;86.55
71149;BME280;59072;42.144;25.200;2023-01-01T04:57:09;101662.38;;;0.10;85.93
71149;BME280;59072;42.144;25.200;2023-01-01T04:59:34;101644.16;;;0.08;84.00
71149;BME280;59072;42.144;25.200;2023-01-01T05:02:00;101656.84;;;0.02;84.27
71149;BME280;59072;42.144;25.200;2023-01-01T05:04:25;101654.47;;;-0.02;84.00
71149;BME280;59072;42.144;25.200;2023-01-01T05:06:51;101666.78;;;0.09;84.50
71149;BME280;59072;42.144;25.200;2023-01-01T05:09:16;101671.25;;;0.20;83.34
71149;BME280;59072;42.144;25.200;2023-01-01T05:11:42;101667.97;;;0.29;83.15
71149;BME280;59072;42.144;25.200;2023-01-01T05:14:07;101645.97;;;0.19;84.61
71149;BME280;59072;42.144;25.200;2023-01-01T05:16:35;101667.44;;;0.24;86.61
71149;BME280;59072;42.144;25.200;2023-01-01T05:19:02;101680.81;;;0.21;85.61
71149;BME280;59072;42.144;25.200;2023-01-01T05:21:32;101676.00;;;0.15;86.04
71149;BME280;59072;42.144;25.200;2023-01-01T05:24:00;101667.72;;;0.32;86.97
71149;BME280;59072;42.144;25.200;2023-01-01T05:26:28;101672.50;;;0.63;86.87
71149;BME280;59072;42.144;25.200;2023-01-01T05:28:54;101678.00;;;0.71;85.38
71149;BME280;59072;42.144;25.200;2023-01-01T05:31:24;101669.34;;;0.46;86.07
71149;BME280;59072;42.144;25.200;2023-01-01T05:33:51;101645.91;;;0.32;86.04
71149;BME280;59072;42.144;25.200;2023-01-01T05:36:51;101686.44;;;0.28;85.74
71149;BME280;59072;42.144;25.200;2023-01-01T05:39:11;101676.56;;;0.31;86.58
71149;BME280;59072;42.144;25.200;2023-01-01T05:41:37;101686.38;;;0.40;85.85
71149;BME280;59072;42.144;25.200;2023-01-01T05:44:06;101661.63;;;0.21;86.44
71149;BME280;59072;42.144;25.200;2023-01-01T05:46:33;101684.91;;;0.36;86.08
71149;BME280;59072;42.144;25.200;2023-01-01T05:48:59;101684.81;;;0.38;86.71
71149;BME280;59072;42.144;25.200;2023-01-01T05:51:26;101688.44;;;0.24;87.01
71149;BME280;59072;42.144;25.200;2023-01-01T05:53:53;101676.56;;;0.31;87.47
71149;BME280;59072;42.144;25.200;2023-01-01T05:56:20;101659.75;;;0.10;86.87
71149;BME280;59072;42.144;25.200;2023-01-01T05:58:45;101673.09;;;0.07;89.94
71149;BME280;59072;42.144;25.200;2023-01-01T06:03:39;101673.75;;;-0.39;92.09
71149;BME280;59072;42.144;25.200;2023-01-01T06:06:07;101683.47;;;-0.16;90.86
71149;BME280;59072;42.144;25.200;2023-01-01T06:08:33;101684.72;;;-0.22;90.90
71149;BME280;59072;42.144;25.200;2023-01-01T06:11:03;101668.81;;;-0.31;90.36
71149;BME280;59072;42.144;25.200;2023-01-01T06:13:30;101683.03;;;-0.10;90.02
71149;BME280;59072;42.144;25.200;2023-01-01T06:15:57;101663.06;;;0.01;89.84
71149;BME280;59072;42.144;25.200;2023-01-01T06:18:23;101657.44;;;-0.19;90.67
71149;BME280;59072;42.144;25.200;2023-01-01T06:20:50;101676.16;;;0.01;91.06
71149;BME280;59072;42.144;25.200;2023-01-01T06:23:15;101663.63;;;0.17;91.38
71149;BME280;59072;42.144;25.200;2023-01-01T06:25:41;101655.03;;;0.15;91.15
71149;BME280;59072;42.144;25.200;2023-01-01T06:28:06;101683.25;;;0.35;91.66
71149;BME280;59072;42.144;25.200;2023-01-01T06:30:32;101675.28;;;0.37;91.44
71149;BME280;59072;42.144;25.200;2023-01-01T06:32:59;101674.31;;;0.38;91.78
71149;BME280;59072;42.144;25.200;2023-01-01T06:35:25;101659.47;;;0.02;92.25
71149;BME280;59072;42.144;25.200;2023-01-01T06:37:50;101648.34;;;-0.26;92.89
71149;BME280;59072;42.144;25.200;2023-01-01T06:40:16;101672.38;;;-0.32;94.28
71149;BME280;59072;42.144;25.200;2023-01-01T06:42:41;101685.91;;;-0.38;94.63
71149;BME280;59072;42.144;25.200;2023-01-01T06:45:07;101663.84;;;-0.23;93.03
71149;BME280;59072;42.144;25.200;2023-01-01T06:47:33;101695.19;;;0.15;92.50
71149;BME280;59072;42.144;25.200;2023-01-01T06:50:00;101693.75;;;0.35;91.74
71149;BME280;59072;42.144;25.200;2023-01-01T06:52:25;101671.16;;;0.57;89.75
71149;BME280;59072;42.144;25.200;2023-01-01T06:54:51;101698.50;;;1.12;88.85
71149;BME280;59072;42.144;25.200;2023-01-01T06:57:16;101686.38;;;1.34;87.77
71149;BME280;59072;42.144;25.200;2023-01-01T06:59:41;101694.84;;;1.37;87.79
71149;BME280;59072;42.144;25.200;2023-01-01T07:02:09;101670.81;;;1.31;87.65
71149;BME280;59072;42.144;25.200;2023-01-01T07:04:35;101686.88;;;1.39;89.29
71149;BME280;59072;42.144;25.200;2023-01-01T07:07:01;101697.13;;;1.53;88.84
71149;BME280;59072;42.144;25.200;2023-01-01T07:09:26;101678.84;;;1.52;89.51
71149;BME280;59072;42.144;25.200;2023-01-01T07:11:52;101676.81;;;1.78;88.49
71149;BME280;59072;42.144;25.200;2023-01-01T07:14:17;101670.78;;;1.98;87.73
71149;BME280;59072;42.144;25.200;2023-01-01T07:16:43;101680.81;;;2.05;87.81
71149;BME280;59072;42.144;25.200;2023-01-01T07:19:08;101686.97;;;2.26;87.14
71149;BME280;59072;42.144;25.200;2023-01-01T07:21:40;101683.00;;;2.20;88.49
71149;BME280;59072;42.144;25.200;2023-01-01T07:24:09;101705.81;;;2.42;87.80
71149;BME280;59072;42.144;25.200;2023-01-01T07:26:35;101682.06;;;2.54;87.43
71149;BME280;59072;42.144;25.200;2023-01-01T07:29:00;101699.44;;;2.77;86.58
71149;BME280;59072;42.144;25.200;2023-01-01T07:31:26;101700.91;;;3.12;85.18
71149;BME280;59072;42.144;25.200;2023-01-01T07:33:51;101700.84;;;3.24;83.44
71149;BME280;59072;42.144;25.200;2023-01-01T07:36:19;101705.22;;;3.13;84.11
71149;BME280;59072;42.144;25.200;2023-01-01T07:38:44;101703.00;;;3.18;84.39
71149;BME280;59072;42.144;25.200;2023-01-01T07:41:10;101708.13;;;3.41;84.07
71149;BME280;59072;42.144;25.200;2023-01-01T07:43:35;101708.75;;;3.54;85.01
71149;BME280;59072;42.144;25.200;2023-01-01T07:46:01;101708.94;;;4.13;84.16
71149;BME280;59072;42.144;25.200;2023-01-01T07:48:27;101707.03;;;4.44;83.00
71149;BME280;59072;42.144;25.200;2023-01-01T07:50:53;101691.03;;;4.26;84.02
71149;BME280;59072;42.144;25.200;2023-01-01T07:53:18;101706.47;;;4.40;84.37
71149;BME280;59072;42.144;25.200;2023-01-01T07:55:44;101708.13;;;4.61;84.15
71149;BME280;59072;42.144;25.200;2023-01-01T07:58:10;101702.44;;;4.85;83.53
71149;BME280;59072;42.144;25.200;2023-01-01T08:00:35;101686.94;;;5.00;82.32
71149;BME280;59072;42.144;25.200;2023-01-01T08:03:01;101701.84;;;4.91;83.21
71149;BME280;59072;42.144;25.200;2023-01-01T08:05:27;101711.16;;;5.05;82.49
71149;BME280;59072;42.144;25.200;2023-01-01T08:07:52;101718.94;;;5.07;83.03
71149;BME280;59072;42.144;25.200;2023-01-01T08:10:18;101719.84;;;5.35;81.48
71149;BME280;59072;42.144;25.200;2023-01-01T08:12:44;101706.03;;;5.41;81.95
71149;BME280;59072;42.144;25.200;2023-01-01T08:15:10;101727.94;;;5.71;81.43
71149;BME280;59072;42.144;25.200;2023-01-01T08:17:37;101736.22;;;5.95;81.12
71149;BME280;59072;42.144;25.200;2023-01-01T08:20:03;101729.94;;;5.96;80.09
71149;BME280;59072;42.144;25.200;2023-01-01T08:22:29;101729.97;;;5.87;80.63
71149;BME280;59072;42.144;25.200;2023-01-01T08:24:55;101734.34;;;6.06;80.50
71149;BME280;59072;42.144;25.200;2023-01-01T08:27:20;101732.13;;;6.29;79.58
71149;BME280;59072;42.144;25.200;2023-01-01T08:29:46;101738.25;;;6.29;79.02
71149;BME280;59072;42.144;25.200;2023-01-01T08:32:12;101752.66;;;6.44;79.05
71149;BME280;59072;42.144;25.200;2023-01-01T08:34:37;101740.09;;;6.47;80.56
71149;BME280;59072;42.144;25.200;2023-01-01T08:37:03;101739.53;;;6.43;80.31
71149;BME280;59072;42.144;25.200;2023-01-01T08:39:29;101756.69;;;6.84;77.20
71149;BME280;59072;42.144;25.200;2023-01-01T08:41:55;101757.16;;;7.06;76.89
71149;BME280;59072;42.144;25.200;2023-01-01T08:44:20;101748.72;;;6.84;78.29
71149;BME280;59072;42.144;25.200;2023-01-01T08:46:46;101763.63;;;7.03;78.80
71149;BME280;59072;42.144;25.200;2023-01-01T08:49:11;101757.91;;;7.16;78.09
71149;BME280;59072;42.144;25.200;2023-01-01T08:51:37;101763.72;;;7.38;77.28
71149;BME280;59072;42.144;25.200;2023-01-01T08:54:03;101750.00;;;7.51;76.70
71149;BME280;59072;42.144;25.200;2023-01-01T08:56:29;101740.91;;;7.53;76.54
71149;BME280;59072;42.144;25.200;2023-01-01T08:58:54;101742.88;;;7.85;74.81
71149;BME280;59072;42.144;25.200;2023-01-01T09:01:20;101752.13;;;8.16;73.79
71149;BME280;59072;42.144;25.200;2023-01-01T09:03:46;101720.50;;;7.96;73.24
71149;BME280;59072;42.144;25.200;2023-01-01T09:06:12;101729.13;;;7.90;74.18
71149;BME280;59072;42.144;25.200;2023-01-01T09:08:38;101736.19;;;8.16;74.87
71149;BME280;59072;42.144;25.200;2023-01-01T09:11:03;101739.22;;;8.37;74.46
71149;BME280;59072;42.144;25.200;2023-01-01T09:13:30;101730.47;;;8.53;74.06
71149;BME280;59072;42.144;25.200;2023-01-01T09:15:55;101714.88;;;8.67;73.65
71149;BME280;59072;42.144;25.200;2023-01-01T09:18:21;101716.00;;;8.89;73.62
71149;BME280;59072;42.144;25.200;2023-01-01T09:20:47;101722.31;;;9.04;73.38
71149;BME280;59072;42.144;25.200;2023-01-01T09:23:12;101725.31;;;9.09;73.58
71149;BME280;59072;42.144;25.200;2023-01-01T09:25:38;101719.78;;;9.35;73.32
71149;BME280;59072;42.144;25.200;2023-01-01T09:28:06;101714.50;;;9.75;71.29
71149;BME280;59072;42.144;25.200;2023-01-01T09:30:32;101691.47;;;9.82;71.35
71149;BME280;59072;42.144;25.200;2023-01-01T09:32:58;101707.34;;;10.06;69.84
71149;BME280;59072;42.144;25.200;2023-01-01T09:35:23;101704.75;;;10.21;68.85
71149;BME280;59072;42.144;25.200;2023-01-01T09:37:48;101697.69;;;10.37;69.71
71149;BME280;59072;42.144;25.200;2023-01-01T09:42:51;101696.31;;;10.64;68.01
71149;BME280;59072;42.144;25.200;2023-01-01T09:45:27;101690.75;;;10.89;67.52
71149;BME280;59072;42.144;25.200;2023-01-01T09:48:04;101692.78;;;10.86;66.78
71149;BME280;59072;42.144;25.200;2023-01-01T09:53:05;101677.63;;;11.32;65.12
71149;BME280;59072;42.144;25.200;2023-01-01T09:55:52;101669.97;;;11.58;64.38
71149;BME280;59072;42.144;25.200;2023-01-01T09:58:22;101656.88;;;11.93;63.33
71149;BME280;59072;42.144;25.200;2023-01-01T10:00:52;101668.47;;;12.00;63.09
71149;BME280;59072;42.144;25.200;2023-01-01T10:11:41;101663.00;;;12.52;60.80
71149;BME280;59072;42.144;25.200;2023-01-01T10:14:20;101669.53;;;12.99;60.31
71149;BME280;59072;42.144;25.200;2023-01-01T10:16:52;101659.94;;;12.83;59.06
71149;BME280;59072;42.144;25.200;2023-01-01T10:19:30;101637.56;;;13.25;58.96
71149;BME280;59072;42.144;25.200;2023-01-01T10:22:02;101646.38;;;13.54;57.60
71149;BME280;59072;42.144;25.200;2023-01-01T10:26:56;101630.06;;;14.17;56.80
71149;BME280;59072;42.144;25.200;2023-01-01T10:29:39;101655.03;;;14.04;54.55
71149;BME280;59072;42.144;25.200;2023-01-01T10:32:21;101644.47;;;13.96;56.16
71149;BME280;59072;42.144;25.200;2023-01-01T10:34:50;101641.84;;;14.36;54.84
71149;BME280;59072;42.144;25.200;2023-01-01T10:37:16;101650.56;;;14.92;50.91
71149;BME280;59072;42.144;25.200;2023-01-01T10:39:43;101647.88;;;14.78;51.18
71149;BME280;59072;42.144;25.200;2023-01-01T10:42:11;101627.44;;;14.77;50.69
71149;BME280;59072;42.144;25.200;2023-01-01T10:44:38;101635.63;;;15.09;50.81
71149;BME280;59072;42.144;25.200;2023-01-01T10:47:27;101640.81;;;15.76;48.91
71149;BME280;59072;42.144;25.200;2023-01-01T10:49:58;101632.75;;;16.07;47.17
71149;BME280;59072;42.144;25.200;2023-01-01T10:52:39;101600.25;;;15.71;48.42
71149;BME280;59072;42.144;25.200;2023-01-01T10:55:08;101631.72;;;15.63;48.56
71149;BME280;59072;42.144;25.200;2023-01-01T10:57:43;101625.09;;;15.73;49.00
71149;BME280;59072;42.144;25.200;2023-01-01T11:02:34;101613.66;;;16.16;48.02
71149;BME280;59072;42.144;25.200;2023-01-01T11:07:41;101609.16;;;16.60;44.51
71149;BME280;59072;42.144;25.200;2023-01-01T11:10:16;101613.06;;;17.07;43.51
71149;BME280;59072;42.144;25.200;2023-01-01T11:12:42;101604.00;;;17.39;42.87
71149;BME280;59072;42.144;25.200;2023-01-01T11:15:20;101607.38;;;17.83;41.85
71149;BME280;59072;42.144;25.200;2023-01-01T11:17:46;101601.09;;;18.01;42.41
71149;BME280;59072;42.144;25.200;2023-01-01T11:20:17;101590.84;;;18.45;39.94
71149;BME280;59072;42.144;25.200;2023-01-01T11:22:46;101585.88;;;18.77;40.91
71149;BME280;59072;42.144;25.200;2023-01-01T11:25:26;101604.34;;;18.68;41.49
71149;BME280;59072;42.144;25.200;2023-01-01T11:27:52;101603.50;;;18.21;41.20
71149;BME280;59072;42.144;25.200;2023-01-01T11:30:36;101597.25;;;18.20;41.47
71149;BME280;59072;42.144;25.200;2023-01-01T11:33:03;101585.47;;;18.80;40.33
71149;BME280;59072;42.144;25.200;2023-01-01T11:35:37;101590.78;;;19.27;39.05
71149;BME280;59072;42.144;25.200;2023-01-01T11:38:16;101575.16;;;19.18;39.38
71149;BME280;59072;42.144;25.200;2023-01-01T11:40:45;101573.81;;;19.73;37.28
71149;BME280;59072;42.144;25.200;2023-01-01T11:43:24;101558.72;;;19.77;37.68
71149;BME280;59072;42.144;25.200;2023-01-01T11:45:51;101586.53;;;19.89;36.70
71149;BME280;59072;42.144;25.200;2023-01-01T11:48:30;101596.97;;;19.68;36.87
71149;BME280;59072;42.144;25.200;2023-01-01T11:51:02;101579.84;;;20.09;35.90
71149;BME280;59072;42.144;25.200;2023-01-01T11:53:33;101575.41;;;20.19;36.01
71149;BME280;59072;42.144;25.200;2023-01-01T11:56:04;101581.66;;;20.20;37.42
71149;BME280;59072;42.144;25.200;2023-01-01T12:01:28;101587.38;;;20.40;34.88
71149;BME280;59072;42.144;25.200;2023-01-01T12:06:30;101569.59;;;20.11;35.73
71149;BME280;59072;42.144;25.200;2023-01-01T12:09:14;101561.53;;;20.89;33.39
71149;BME280;59072;42.144;25.200;2023-01-01T12:16:51;101565.34;;;21.59;33.94
71149;BME280;59072;42.144;25.200;2023-01-01T12:19:28;101566.25;;;22.29;32.85
71149;BME280;59072;42.144;25.200;2023-01-01T12:21:58;101559.41;;;21.89;32.81
71149;BME280;59072;42.144;25.200;2023-01-01T12:24:33;101567.41;;;21.74;33.61
71149;BME280;59072;42.144;25.200;2023-01-01T12:27:23;101564.28;;;22.57;31.70
71149;BME280;59072;42.144;25.200;2023-01-01T12:35:24;101558.38;;;23.28;30.29
71149;BME280;59072;42.144;25.200;2023-01-01T12:38:17;101545.66;;;23.75;29.41
71149;BME280;59072;42.144;25.200;2023-01-01T12:46:15;101548.66;;;24.50;27.88
71149;BME280;59072;42.144;25.200;2023-01-01T12:49:04;101542.38;;;24.55;27.71
71149;BME280;59072;42.144;25.200;2023-01-01T12:51:57;101539.72;;;25.04;27.69
71149;BME280;59072;42.144;25.200;2023-01-01T12:54:50;101553.81;;;25.72;26.84
71149;BME280;59072;42.144;25.200;2023-01-01T12:57:35;101545.34;;;25.73;26.57
71149;BME280;59072;42.144;25.200;2023-01-01T13:00:11;101547.94;;;25.54;26.59
71149;BME280;59072;42.144;25.200;2023-01-01T13:02:51;101544.94;;;25.90;26.44
71149;BME280;59072;42.144;25.200;2023-01-01T13:08:04;101540.97;;;25.33;27.20
71149;BME280;59072;42.144;25.200;2023-01-01T13:10:32;101541.56;;;25.19;26.86
71149;BME280;59072;42.144;25.200;2023-01-01T13:12:59;101541.38;;;25.55;26.70
71149;BME280;59072;42.144;25.200;2023-01-01T13:15:46;101533.97;;;26.97;25.33
71149;BME280;59072;42.144;25.200;2023-01-01T13:20:43;101551.06;;;26.89;24.62
71149;BME280;59072;42.144;25.200;2023-01-01T13:40:02;101550.06;;;28.87;21.56
71149;BME280;59072;42.144;25.200;2023-01-01T13:43:05;101558.41;;;29.68;20.78
71149;BME280;59072;42.144;25.200;2023-01-01T13:45:37;101550.84;;;29.01;21.26
71149;BME280;59072;42.144;25.200;2023-01-01T13:48:06;101546.50;;;29.00;22.16
71149;BME280;59072;42.144;25.200;2023-01-01T13:59:59;101565.22;;;26.72;24.27
71149;BME280;59072;42.144;25.200;2023-01-01T14:02:39;101548.41;;;23.85;27.99
71149;BME280;59072;42.144;25.200;2023-01-01T14:05:28;101545.19;;;22.46;30.72
71149;BME280;59072;42.144;25.200;2023-01-01T14:07:54;101541.88;;;20.76;33.34
71149;BME280;59072;42.144;25.200;2023-01-01T14:10:22;101543.06;;;19.79;35.28
71149;BME280;59072;42.144;25.200;2023-01-01T14:12:48;101533.19;;;19.15;36.91
71149;BME280;59072;42.144;25.200;2023-01-01T14:15:51;101534.00;;;18.63;37.84
71149;BME280;59072;42.144;25.200;2023-01-01T14:18:19;101525.97;;;17.86;39.68
71149;BME280;59072;42.144;25.200;2023-01-01T14:20:48;101516.75;;;17.63;40.97
71149;BME280;59072;42.144;25.200;2023-01-01T14:23:30;101502.78;;;17.24;41.28
71149;BME280;59072;42.144;25.200;2023-01-01T14:25:59;101508.41;;;17.04;41.98
71149;BME280;59072;42.144;25.200;2023-01-01T14:28:28;101519.41;;;17.03;42.84
71149;BME280;59072;42.144;25.200;2023-01-01T14:30:55;101509.66;;;17.02;42.69
71149;BME280;59072;42.144;25.200;2023-01-01T14:33:26;101525.09;;;16.95;42.77
71149;BME280;59072;42.144;25.200;2023-01-01T14:36:00;101518.50;;;16.72;44.49
71149;BME280;59072;42.144;25.200;2023-01-01T14:38:31;101529.75;;;16.44;44.55
71149;BME280;59072;42.144;25.200;2023-01-01T14:41:33;101528.84;;;16.32;45.60
71149;BME280;59072;42.144;25.200;2023-01-01T14:44:14;101508.13;;;15.82;46.91
71149;BME280;59072;42.144;25.200;2023-01-01T14:46:46;101520.53;;;15.83;48.04
71149;BME280;59072;42.144;25.200;2023-01-01T14:49:36;101523.22;;;15.83;48.51
71149;BME280;59072;42.144;25.200;2023-01-01T14:52:12;101507.34;;;15.43;48.90
71149;BME280;59072;42.144;25.200;2023-01-01T14:54:43;101497.91;;;15.27;49.03